Time;durP1;ratioP1;P1;durP2;ratioP2;P2;SDS_P1;SDS_P2;PMS_P1;PMS_P2;Temp;Humidity;BMP_temperature;BMP_pressure;BME280_temperature;BME280_humidity;BME280_pressure;Samples;Min_cycle;Max_cycle;Signal;HPM_P1;HPM_P2
2022/06/07 00:00:17;;;;;;;6.07;2.07;;;;;;;;;;4975779;28;20582;-32
2022/06/07 00:02:44;;;;;;;3.50;2.00;;;;;;;;;;4977631;28;20206;-32
2022/06/07 00:05:11;;;;;;;2.93;2.10;;;;;;;;;;4983884;28;20209;-33
2022/06/07 00:10:07;;;;;;;1.53;1.43;;;;;;;;;;4986372;28;20310;-34
2022/06/07 00:12:34;;;;;;;3.07;2.10;;;;;;;;;;4977594;28;20234;-39
2022/06/07 00:15:02;;;;;;;1.90;1.80;;;;;;;;;;4987350;28;20200;-38
2022/06/07 00:17:30;;;;;;;3.83;2.13;;;;;;;;;;4982678;28;20229;-35
2022/06/07 00:19:57;;;;;;;1.73;1.63;;;;;;;;;;4980606;28;20483;-36
2022/06/07 00:22:24;;;;;;;2.20;1.80;;;;;;;;;;4975469;28;20210;-35
2022/06/07 00:24:51;;;;;;;2.10;1.97;;;;;;;;;;4977263;28;20318;-36
2022/06/07 00:27:19;;;;;;;2.10;2.00;;;;;;;;;;4975437;28;20224;-34
2022/06/07 00:29:47;;;;;;;4.17;1.67;;;;;;;;;;4989596;28;20200;-40
2022/06/07 00:32:17;;;;;;;2.00;1.90;;;;;;;;;;4988440;28;20197;-39
2022/06/07 00:34:44;;;;;;;5.10;1.90;;;;;;;;;;4977690;28;20215;-32
2022/06/07 00:37:11;;;;;;;3.17;1.73;;;;;;;;;;4975234;28;20225;-38
2022/06/07 00:39:39;;;;;;;9.63;2.10;;;;;;;;;;4974946;28;20219;-32
2022/06/07 00:42:06;;;;;;;3.00;1.93;;;;;;;;;;4982300;28;20221;-40
2022/06/07 00:44:35;;;;;;;3.00;2.30;;;;;;;;;;4990501;28;20208;-33
2022/06/07 00:47:03;;;;;;;5.47;1.80;;;;;;;;;;4981319;28;20232;-34
2022/06/07 00:49:35;;;;;;;1.50;1.40;;;;;;;;;;4983911;28;20212;-37
2022/06/07 00:52:02;;;;;;;1.43;1.23;;;;;;;;;;4975144;28;20194;-37
2022/06/07 00:54:31;;;;;;;1.50;1.40;;;;;;;;;;4977267;28;20204;-39
2022/06/07 00:56:58;;;;;;;2.23;1.30;;;;;;;;;;4984451;28;20220;-39
2022/06/07 00:59:26;;;;;;;1.37;1.13;;;;;;;;;;4974873;28;20214;-31
2022/06/07 01:01:59;;;;;;;2.80;1.00;;;;;;;;;;4976902;28;20220;-40
2022/06/07 01:04:27;;;;;;;1.70;0.90;;;;;;;;;;4986192;28;20203;-40
2022/06/07 01:12:25;;;;;;;1.10;1.00;;;;;;;;;;4989476;28;20333;-34
2022/06/07 01:14:53;;;;;;;1.13;1.00;;;;;;;;;;4974329;28;20201;-38
2022/06/07 01:17:20;;;;;;;1.40;1.20;;;;;;;;;;4980046;28;20302;-36
2022/06/07 01:19:47;;;;;;;1.20;1.10;;;;;;;;;;4983201;28;20224;-41
2022/06/07 01:22:16;;;;;;;1.30;1.20;;;;;;;;;;4980042;28;20248;-39
2022/06/07 01:24:43;;;;;;;1.33;1.23;;;;;;;;;;4975697;28;20211;-36
2022/06/07 01:27:10;;;;;;;3.07;1.30;;;;;;;;;;4992210;28;20227;-36
2022/06/07 01:29:38;;;;;;;1.77;1.20;;;;;;;;;;4994050;28;20200;-34
2022/06/07 01:32:05;;;;;;;2.67;1.20;;;;;;;;;;4985546;28;20204;-36
2022/06/07 01:34:33;;;;;;;1.33;1.20;;;;;;;;;;4982755;28;20201;-33
2022/06/07 01:37:00;;;;;;;1.77;1.10;;;;;;;;;;4983929;28;20220;-34
2022/06/07 01:42:14;;;;;;;1.70;0.90;;;;;;;;;;4982235;28;20227;-37
2022/06/07 01:44:42;;;;;;;1.30;1.20;;;;;;;;;;4975127;28;20221;-30
2022/06/07 01:47:11;;;;;;;1.67;1.20;;;;;;;;;;4980769;28;20238;-36
2022/06/07 01:49:38;;;;;;;1.87;1.17;;;;;;;;;;4984504;28;20208;-37
2022/06/07 01:52:06;;;;;;;2.03;1.70;;;;;;;;;;4973918;28;20201;-34
2022/06/07 01:54:34;;;;;;;3.47;1.13;;;;;;;;;;4973245;28;20339;-31
2022/06/07 01:57:02;;;;;;;0.90;0.90;;;;;;;;;;4980257;28;20240;-38
2022/06/07 01:59:29;;;;;;;0.90;0.90;;;;;;;;;;4973864;28;20212;-37
2022/06/07 02:01:56;;;;;;;1.23;1.10;;;;;;;;;;4976046;28;20244;-31
2022/06/07 02:04:23;;;;;;;0.97;0.97;;;;;;;;;;4985650;28;20211;-33
2022/06/07 02:06:51;;;;;;;0.80;0.80;;;;;;;;;;4992810;28;20709;-37
2022/06/07 02:09:18;;;;;;;0.93;0.93;;;;;;;;;;4992937;28;20212;-35
2022/06/07 02:11:47;;;;;;;1.20;1.10;;;;;;;;;;4983333;28;20200;-32
2022/06/07 02:14:15;;;;;;;1.07;0.97;;;;;;;;;;4992778;28;20203;-37
2022/06/07 02:16:42;;;;;;;0.90;0.90;;;;;;;;;;4978584;28;20228;-34
2022/06/07 02:19:09;;;;;;;2.80;1.20;;;;;;;;;;4978984;28;20209;-37
2022/06/07 02:21:37;;;;;;;1.90;0.97;;;;;;;;;;4989996;28;20231;-34
2022/06/07 02:24:06;;;;;;;3.93;1.50;;;;;;;;;;4993176;28;20208;-40
2022/06/07 02:26:36;;;;;;;1.83;1.10;;;;;;;;;;4982372;28;20250;-32
2022/06/07 02:29:07;;;;;;;1.00;1.00;;;;;;;;;;4984766;28;20294;-32
2022/06/07 02:31:35;;;;;;;0.90;0.90;;;;;;;;;;4987103;28;20236;-33
2022/06/07 02:34:03;;;;;;;1.30;1.20;;;;;;;;;;4977253;28;20207;-30
2022/06/07 02:36:32;;;;;;;1.60;0.97;;;;;;;;;;4983013;28;20216;-37
2022/06/07 02:38:59;;;;;;;0.97;0.93;;;;;;;;;;4993001;28;20204;-36
2022/06/07 02:41:27;;;;;;;2.90;1.30;;;;;;;;;;4986677;28;20220;-33
2022/06/07 02:43:55;;;;;;;0.90;0.90;;;;;;;;;;4992325;28;20222;-34
2022/06/07 02:46:23;;;;;;;2.03;1.10;;;;;;;;;;4986627;28;20224;-37
2022/06/07 02:48:51;;;;;;;1.00;0.90;;;;;;;;;;4975669;28;20227;-34
2022/06/07 02:51:18;;;;;;;0.90;0.90;;;;;;;;;;4986181;28;20332;-34
2022/06/07 02:53:45;;;;;;;3.33;1.03;;;;;;;;;;4973543;28;20212;-29
2022/06/07 02:56:12;;;;;;;1.00;0.90;;;;;;;;;;4989307;28;20228;-34
2022/06/07 02:58:40;;;;;;;1.50;1.03;;;;;;;;;;4985705;28;20287;-35
2022/06/07 03:01:07;;;;;;;1.67;1.10;;;;;;;;;;4992187;28;20228;-35
2022/06/07 03:03:36;;;;;;;1.00;1.00;;;;;;;;;;4986922;28;20196;-36
2022/06/07 03:06:03;;;;;;;1.20;1.10;;;;;;;;;;4976755;28;20216;-32
2022/06/07 03:08:30;;;;;;;1.23;0.87;;;;;;;;;;4976705;28;20236;-34
2022/06/07 03:10:57;;;;;;;1.77;1.13;;;;;;;;;;4976264;28;20251;-33
2022/06/07 03:13:25;;;;;;;1.30;1.20;;;;;;;;;;4976290;28;20200;-35
2022/06/07 03:15:53;;;;;;;4.00;1.07;;;;;;;;;;4991567;28;20247;-30
2022/06/07 03:18:21;;;;;;;2.00;1.00;;;;;;;;;;4983812;28;20232;-34
2022/06/07 03:20:50;;;;;;;1.70;1.00;;;;;;;;;;4984408;28;20241;-32
2022/06/07 03:23:17;;;;;;;0.90;0.90;;;;;;;;;;4976460;28;20197;-33
2022/06/07 03:25:44;;;;;;;3.23;1.10;;;;;;;;;;4974843;28;20228;-34
2022/06/07 03:28:11;;;;;;;2.20;1.63;;;;;;;;;;4986524;28;20196;-34
2022/06/07 03:30:39;;;;;;;1.30;1.20;;;;;;;;;;4994887;28;20207;-34
2022/06/07 03:33:06;;;;;;;1.17;1.07;;;;;;;;;;4976285;28;20204;-38
2022/06/07 03:35:34;;;;;;;0.97;0.97;;;;;;;;;;4978393;28;20215;-32
2022/06/07 03:38:03;;;;;;;1.07;1.03;;;;;;;;;;4976558;28;20209;-36
2022/06/07 03:40:45;;;;;;;1.17;1.17;;;;;;;;;;4976701;28;20207;-39
2022/06/07 03:43:13;;;;;;;4.33;1.20;;;;;;;;;;4981511;28;20215;-33
2022/06/07 03:45:40;;;;;;;3.17;1.20;;;;;;;;;;4975672;28;20204;-35
2022/06/07 03:48:08;;;;;;;0.93;0.90;;;;;;;;;;4982249;28;20200;-33
2022/06/07 03:50:36;;;;;;;0.97;0.90;;;;;;;;;;4986867;28;20246;-33
2022/06/07 03:53:04;;;;;;;1.30;1.20;;;;;;;;;;4976083;28;20205;-36
2022/06/07 03:55:31;;;;;;;1.00;1.00;;;;;;;;;;4989001;28;20207;-35
2022/06/07 03:57:58;;;;;;;1.10;1.00;;;;;;;;;;4975712;28;20207;-31
2022/06/07 04:00:26;;;;;;;2.40;0.87;;;;;;;;;;4975946;28;20204;-32
2022/06/07 04:02:53;;;;;;;0.97;0.97;;;;;;;;;;4983511;28;20302;-38
2022/06/07 04:05:20;;;;;;;1.23;1.00;;;;;;;;;;4995647;28;20207;-29
2022/06/07 04:10:33;;;;;;;2.07;1.20;;;;;;;;;;4978134;28;20204;-30
2022/06/07 04:13:00;;;;;;;1.63;1.10;;;;;;;;;;4984291;28;20196;-36
2022/06/07 04:15:27;;;;;;;1.00;1.00;;;;;;;;;;4983331;28;20204;-32
2022/06/07 04:17:55;;;;;;;1.27;1.10;;;;;;;;;;4984671;28;20200;-37
2022/06/07 04:20:22;;;;;;;1.33;0.90;;;;;;;;;;4980778;28;20196;-35
2022/06/07 04:22:49;;;;;;;2.93;1.40;;;;;;;;;;4975670;28;20220;-35
2022/06/07 04:25:16;;;;;;;3.33;1.30;;;;;;;;;;4976727;28;20216;-34
2022/06/07 04:27:45;;;;;;;1.10;1.10;;;;;;;;;;4975238;28;20224;-39
2022/06/07 04:30:13;;;;;;;1.43;1.20;;;;;;;;;;4975378;28;20300;-33
2022/06/07 04:32:46;;;;;;;1.00;1.00;;;;;;;;;;4976509;28;20255;-31
2022/06/07 04:35:13;;;;;;;0.93;0.90;;;;;;;;;;4985239;28;20340;-32
2022/06/07 04:37:40;;;;;;;1.57;1.00;;;;;;;;;;4991410;28;20310;-32
2022/06/07 04:40:08;;;;;;;1.43;1.30;;;;;;;;;;4989663;28;20204;-29
2022/06/07 04:42:35;;;;;;;1.27;1.17;;;;;;;;;;4990716;28;20234;-32
2022/06/07 04:45:06;;;;;;;1.60;1.10;;;;;;;;;;4975649;28;20205;-29
2022/06/07 04:47:33;;;;;;;1.60;1.03;;;;;;;;;;4975037;28;20234;-35
2022/06/07 04:50:00;;;;;;;1.00;1.00;;;;;;;;;;4992024;28;20200;-29
2022/06/07 04:52:27;;;;;;;1.07;1.07;;;;;;;;;;4993891;28;20193;-32
2022/06/07 04:54:55;;;;;;;1.63;1.53;;;;;;;;;;4984902;28;20204;-34
2022/06/07 04:57:22;;;;;;;1.77;1.30;;;;;;;;;;4983636;28;20220;-37
2022/06/07 04:59:49;;;;;;;1.93;1.30;;;;;;;;;;4980695;28;20215;-32
2022/06/07 05:02:18;;;;;;;1.70;1.60;;;;;;;;;;4980965;28;20222;-35
2022/06/07 05:04:45;;;;;;;2.77;1.30;;;;;;;;;;4975275;28;20212;-33
2022/06/07 05:07:13;;;;;;;1.30;1.20;;;;;;;;;;4973503;28;20227;-36
2022/06/07 05:09:40;;;;;;;2.67;1.27;;;;;;;;;;4976939;28;20208;-40
2022/06/07 05:12:08;;;;;;;1.77;1.20;;;;;;;;;;4978220;28;20196;-39
2022/06/07 05:14:36;;;;;;;1.23;1.20;;;;;;;;;;4985218;28;20259;-33
2022/06/07 05:17:03;;;;;;;1.13;1.03;;;;;;;;;;4984174;28;20219;-33
2022/06/07 05:19:33;;;;;;;1.00;1.00;;;;;;;;;;4975330;28;20212;-35
2022/06/07 05:22:00;;;;;;;1.37;1.27;;;;;;;;;;4985819;28;20223;-40
2022/06/07 05:24:30;;;;;;;1.93;1.37;;;;;;;;;;4993730;28;20204;-38
2022/06/07 05:27:00;;;;;;;1.57;1.47;;;;;;;;;;4989530;28;20221;-36
2022/06/07 05:29:29;;;;;;;1.30;1.20;;;;;;;;;;4975893;28;20205;-36
2022/06/07 05:31:56;;;;;;;1.60;1.23;;;;;;;;;;4987759;28;20207;-33
2022/06/07 05:34:23;;;;;;;0.93;0.90;;;;;;;;;;4986911;28;20200;-36
2022/06/07 05:36:52;;;;;;;2.63;1.13;;;;;;;;;;4991622;28;20220;-39
2022/06/07 05:39:21;;;;;;;3.33;1.50;;;;;;;;;;4994553;28;20271;-34
2022/06/07 05:41:48;;;;;;;1.83;1.73;;;;;;;;;;4984223;28;20228;-37
2022/06/07 05:44:16;;;;;;;1.63;1.53;;;;;;;;;;4982731;28;20212;-30
2022/06/07 05:46:43;;;;;;;1.23;1.20;;;;;;;;;;4988780;28;20224;-30
2022/06/07 05:49:10;;;;;;;2.80;1.47;;;;;;;;;;4985607;28;20228;-35
2022/06/07 05:51:38;;;;;;;2.93;1.70;;;;;;;;;;4981652;28;20201;-32
2022/06/07 05:54:07;;;;;;;3.50;1.43;;;;;;;;;;4976505;28;20192;-29
2022/06/07 05:56:35;;;;;;;1.50;1.40;;;;;;;;;;4978947;28;20239;-36
2022/06/07 05:59:05;;;;;;;1.63;1.53;;;;;;;;;;4973106;28;20197;-37
2022/06/07 06:01:33;;;;;;;3.10;1.80;;;;;;;;;;4977567;28;20271;-35
2022/06/07 06:04:03;;;;;;;1.07;1.00;;;;;;;;;;4979836;28;20199;-35
2022/06/07 06:11:44;;;;;;;1.33;1.20;;;;;;;;;;4962146;28;20196;-40
2022/06/07 06:14:11;;;;;;;1.67;1.00;;;;;;;;;;4953651;28;20303;-36
2022/06/07 06:16:38;;;;;;;2.80;1.03;;;;;;;;;;4954804;28;20693;-39
2022/06/07 06:19:06;;;;;;;0.97;0.97;;;;;;;;;;4960707;28;20296;-36
2022/06/07 06:21:35;;;;;;;1.00;0.90;;;;;;;;;;4954522;28;20248;-38
2022/06/07 06:24:02;;;;;;;2.37;1.17;;;;;;;;;;4953840;28;20221;-36
2022/06/07 06:26:30;;;;;;;1.40;1.17;;;;;;;;;;4953664;28;20226;-35
2022/06/07 06:28:58;;;;;;;1.73;1.23;;;;;;;;;;4954106;28;20221;-38
2022/06/07 06:31:25;;;;;;;1.10;1.10;;;;;;;;;;4968726;28;20216;-36
2022/06/07 06:33:54;;;;;;;2.37;1.20;;;;;;;;;;4962287;28;20237;-39
2022/06/07 06:36:22;;;;;;;1.00;0.90;;;;;;;;;;4964571;28;20255;-42
2022/06/07 06:38:49;;;;;;;3.60;1.50;;;;;;;;;;4974320;28;20228;-36
2022/06/07 06:41:17;;;;;;;1.97;1.30;;;;;;;;;;4966149;28;20214;-39
2022/06/07 06:43:45;;;;;;;2.80;1.20;;;;;;;;;;4974831;28;20238;-38
2022/06/07 06:46:15;;;;;;;1.73;1.00;;;;;;;;;;4972082;28;20614;-35
2022/06/07 06:48:43;;;;;;;1.37;1.20;;;;;;;;;;4959316;28;20221;-37
2022/06/07 06:51:11;;;;;;;1.33;1.00;;;;;;;;;;4957606;28;20572;-43
2022/06/07 06:53:38;;;;;;;0.93;0.93;;;;;;;;;;4958178;28;20260;-33
2022/06/07 06:56:06;;;;;;;1.63;1.00;;;;;;;;;;4965679;28;20235;-34
2022/06/07 06:58:33;;;;;;;1.20;0.90;;;;;;;;;;4970210;28;20200;-38
2022/06/07 07:01:01;;;;;;;1.30;1.17;;;;;;;;;;4974950;28;20299;-35
2022/06/07 07:03:30;;;;;;;1.70;1.02;;;;;;;;;;4972381;28;20224;-40
2022/06/07 07:05:57;;;;;;;1.23;1.17;;;;;;;;;;4965328;28;20217;-35
2022/06/07 07:08:24;;;;;;;1.20;1.00;;;;;;;;;;4957555;28;20221;-38
2022/06/07 07:10:52;;;;;;;1.15;1.05;;;;;;;;;;4960090;28;20271;-39
2022/06/07 07:13:19;;;;;;;1.65;0.90;;;;;;;;;;4968152;28;20211;-37
2022/06/07 07:15:49;;;;;;;1.92;0.85;;;;;;;;;;4957128;28;20225;-36
2022/06/07 07:18:16;;;;;;;1.92;0.85;;;;;;;;;;4955606;28;20541;-38
2022/06/07 07:20:45;;;;;;;0.82;0.82;;;;;;;;;;4957066;28;20237;-35
2022/06/07 07:23:12;;;;;;;0.83;0.83;;;;;;;;;;4957104;28;20233;-40
2022/06/07 07:25:41;;;;;;;1.13;1.03;;;;;;;;;;4961483;28;20228;-40
2022/06/07 07:28:26;;;;;;;1.63;0.90;;;;;;;;;;4992908;28;20283;-36
2022/06/07 07:30:58;;;;;;;1.53;1.10;;;;;;;;;;4992371;28;20215;-34
2022/06/07 07:33:26;;;;;;;2.33;1.80;;;;;;;;;;4955978;28;20223;-40
2022/06/07 07:35:54;;;;;;;1.27;1.00;;;;;;;;;;4953823;28;20236;-32
2022/06/07 07:38:21;;;;;;;1.83;1.00;;;;;;;;;;4966210;28;20215;-35
2022/06/07 07:40:49;;;;;;;1.67;0.90;;;;;;;;;;4949954;28;20217;-39
2022/06/07 07:43:16;;;;;;;1.43;1.00;;;;;;;;;;4952677;28;20231;-33
2022/06/07 07:45:43;;;;;;;1.40;1.10;;;;;;;;;;4951097;28;20241;-37
2022/06/07 07:48:11;;;;;;;4.17;1.30;;;;;;;;;;4959710;28;20287;-40
2022/06/07 07:50:38;;;;;;;1.20;1.07;;;;;;;;;;4960507;28;20259;-39
2022/06/07 07:53:07;;;;;;;2.30;1.53;;;;;;;;;;4968588;28;20248;-39
2022/06/07 07:55:34;;;;;;;1.73;1.00;;;;;;;;;;4955333;28;20216;-35
2022/06/07 07:58:01;;;;;;;1.93;1.67;;;;;;;;;;4972162;28;20212;-39
2022/06/07 08:00:29;;;;;;;1.43;1.30;;;;;;;;;;4957637;28;20215;-34
2022/06/07 08:02:56;;;;;;;2.38;1.15;;;;;;;;;;4953052;28;20231;-35
2022/06/07 08:05:23;;;;;;;1.42;1.10;;;;;;;;;;4963682;28;20297;-37
2022/06/07 08:07:51;;;;;;;1.13;1.00;;;;;;;;;;4955366;28;20221;-36
2022/06/07 08:10:20;;;;;;;3.80;1.40;;;;;;;;;;4948900;28;20651;-37
2022/06/07 08:12:47;;;;;;;1.27;0.90;;;;;;;;;;4963068;28;20516;-37
2022/06/07 08:15:15;;;;;;;1.07;0.97;;;;;;;;;;4961972;28;20212;-41
2022/06/07 08:17:43;;;;;;;1.63;1.10;;;;;;;;;;4957854;28;20228;-38
2022/06/07 08:20:11;;;;;;;2.03;1.03;;;;;;;;;;4967078;28;20208;-35
2022/06/07 08:22:38;;;;;;;2.07;1.00;;;;;;;;;;4952229;28;20225;-34
2022/06/07 08:25:05;;;;;;;1.13;1.10;;;;;;;;;;4947374;28;20205;-35
2022/06/07 08:27:34;;;;;;;1.00;1.00;;;;;;;;;;4959483;28;20225;-38
2022/06/07 08:30:01;;;;;;;2.40;1.00;;;;;;;;;;4966303;28;20209;-40
2022/06/07 08:32:28;;;;;;;1.37;1.00;;;;;;;;;;4955742;28;20423;-37
2022/06/07 08:37:40;;;;;;;1.27;1.17;;;;;;;;;;4965486;28;20235;-35
2022/06/07 08:40:09;;;;;;;0.90;0.90;;;;;;;;;;4965099;28;20224;-36
2022/06/07 08:42:40;;;;;;;1.63;0.90;;;;;;;;;;4954001;28;20209;-35
2022/06/07 08:45:10;;;;;;;1.10;1.10;;;;;;;;;;4955142;28;20212;-33
2022/06/07 08:47:39;;;;;;;2.28;1.50;;;;;;;;;;4956101;28;20687;-34
2022/06/07 08:50:13;;;;;;;1.40;1.00;;;;;;;;;;4955817;28;20216;-35
2022/06/07 08:52:41;;;;;;;2.75;1.23;;;;;;;;;;4969133;28;20208;-41
2022/06/07 08:55:13;;;;;;;1.55;0.93;;;;;;;;;;4974374;28;20219;-38
2022/06/07 08:57:43;;;;;;;1.50;1.10;;;;;;;;;;4959990;28;20240;-38
2022/06/07 09:00:15;;;;;;;1.13;1.02;;;;;;;;;;4959506;28;20213;-40
2022/06/07 09:02:49;;;;;;;2.63;0.98;;;;;;;;;;4953026;28;20209;-37
2022/06/07 09:05:16;;;;;;;2.60;1.17;;;;;;;;;;4965396;28;20205;-37
2022/06/07 09:07:44;;;;;;;1.00;1.00;;;;;;;;;;4955549;28;20506;-35
2022/06/07 09:13:00;;;;;;;2.10;1.10;;;;;;;;;;4971669;28;20204;-36
2022/06/07 09:15:29;;;;;;;0.80;0.80;;;;;;;;;;4961824;28;20215;-40
2022/06/07 09:17:58;;;;;;;1.92;0.82;;;;;;;;;;4964775;28;20215;-34
2022/06/07 09:20:26;;;;;;;3.47;0.90;;;;;;;;;;4954663;28;20659;-38
2022/06/07 09:22:57;;;;;;;2.60;1.20;;;;;;;;;;4973811;28;20205;-39
2022/06/07 09:25:26;;;;;;;1.00;1.00;;;;;;;;;;4972141;28;20208;-38
2022/06/07 09:28:02;;;;;;;1.27;0.88;;;;;;;;;;4957886;28;20268;-34
2022/06/07 09:30:30;;;;;;;2.42;1.25;;;;;;;;;;4970176;28;20196;-34
2022/06/07 09:32:57;;;;;;;1.07;1.00;;;;;;;;;;4958411;28;20205;-36
2022/06/07 09:35:25;;;;;;;2.05;1.05;;;;;;;;;;4974457;28;20204;-32
2022/06/07 09:37:56;;;;;;;3.10;1.08;;;;;;;;;;4956504;28;20216;-36
2022/06/07 09:40:27;;;;;;;1.15;1.00;;;;;;;;;;4962439;28;20204;-38
2022/06/07 09:42:58;;;;;;;1.10;1.10;;;;;;;;;;4967618;28;20228;-38
2022/06/07 09:45:28;;;;;;;1.10;1.00;;;;;;;;;;4967033;28;20204;-39
2022/06/07 09:47:56;;;;;;;1.20;0.80;;;;;;;;;;4970809;28;20207;-34
2022/06/07 09:50:26;;;;;;;0.70;0.70;;;;;;;;;;4970421;28;20209;-34
2022/06/07 09:52:55;;;;;;;1.00;0.90;;;;;;;;;;4968421;28;20207;-39
2022/06/07 09:55:24;;;;;;;1.77;1.03;;;;;;;;;;4984548;28;20599;-38
2022/06/07 09:57:55;;;;;;;1.50;0.90;;;;;;;;;;4973890;28;20208;-39
2022/06/07 10:00:24;;;;;;;1.03;0.90;;;;;;;;;;4954377;28;20769;-37
2022/06/07 10:03:00;;;;;;;1.67;0.90;;;;;;;;;;4968290;28;20211;-35
2022/06/07 10:05:30;;;;;;;0.77;0.77;;;;;;;;;;4964171;28;20704;-39
2022/06/07 10:08:00;;;;;;;1.63;0.93;;;;;;;;;;4958629;28;20321;-38
2022/06/07 10:10:50;;;;;;;2.23;1.07;;;;;;;;;;4960198;28;20312;-36
2022/06/07 10:13:28;;;;;;;0.80;0.80;;;;;;;;;;4972492;28;20235;-39
2022/06/07 10:16:01;;;;;;;3.60;1.20;;;;;;;;;;4975780;28;20261;-33
2022/06/07 10:18:33;;;;;;;0.90;0.87;;;;;;;;;;4966832;28;20204;-35
2022/06/07 10:21:08;;;;;;;1.17;0.77;;;;;;;;;;4962229;28;20196;-37
2022/06/07 10:23:50;;;;;;;2.87;1.00;;;;;;;;;;4977058;28;20207;-35
2022/06/07 10:26:24;;;;;;;2.47;1.03;;;;;;;;;;4960486;28;20232;-40
2022/06/07 10:29:01;;;;;;;1.30;1.10;;;;;;;;;;4960310;28;20204;-36
2022/06/07 10:31:33;;;;;;;0.90;0.90;;;;;;;;;;4967993;28;20704;-35
2022/06/07 10:34:06;;;;;;;1.50;0.80;;;;;;;;;;4957362;28;20223;-33
2022/06/07 10:36:41;;;;;;;0.80;0.80;;;;;;;;;;4963526;28;20231;-42
2022/06/07 10:39:12;;;;;;;0.90;0.90;;;;;;;;;;4973619;28;20200;-32
2022/06/07 10:41:45;;;;;;;1.00;1.00;;;;;;;;;;4968182;28;20248;-37
2022/06/07 10:44:15;;;;;;;0.83;0.83;;;;;;;;;;4957687;28;20217;-38
2022/06/07 10:46:43;;;;;;;2.30;0.90;;;;;;;;;;4957858;28;20236;-40
2022/06/07 10:49:16;;;;;;;0.80;0.80;;;;;;;;;;4957416;28;20598;-36
2022/06/07 10:54:31;;;;;;;2.30;0.60;;;;;;;;;;4956473;28;20185;-34
2022/06/07 10:57:04;;;;;;;0.70;0.70;;;;;;;;;;4959072;28;20221;-41
2022/06/07 10:59:32;;;;;;;1.40;0.80;;;;;;;;;;4957434;28;20209;-34
2022/06/07 11:02:02;;;;;;;1.93;0.93;;;;;;;;;;4959544;28;20200;-38
2022/06/07 11:10:09;;;;;;;1.87;0.80;;;;;;;;;;4958131;28;20211;-37
2022/06/07 11:12:41;;;;;;;1.17;0.87;;;;;;;;;;4960921;28;20205;-38
2022/06/07 11:15:11;;;;;;;2.17;1.00;;;;;;;;;;4963402;28;20252;-34
2022/06/07 11:17:40;;;;;;;2.00;0.87;;;;;;;;;;4962791;28;20232;-32
2022/06/07 11:20:15;;;;;;;0.70;0.70;;;;;;;;;;4974724;28;20196;-39
2022/06/07 11:22:53;;;;;;;1.57;0.90;;;;;;;;;;4976680;28;20195;-38
2022/06/07 11:25:23;;;;;;;1.20;0.90;;;;;;;;;;4970352;28;20212;-40
2022/06/07 11:27:55;;;;;;;1.90;0.80;;;;;;;;;;4972740;28;20216;-37
2022/06/07 11:30:28;;;;;;;0.80;0.80;;;;;;;;;;4971112;28;20208;-37
2022/06/07 11:32:56;;;;;;;0.70;0.70;;;;;;;;;;4958671;28;20253;-35
2022/06/07 11:35:42;;;;;;;1.37;0.90;;;;;;;;;;4963467;28;20196;-35
2022/06/07 11:38:30;;;;;;;0.97;0.80;;;;;;;;;;4975992;28;20259;-35
2022/06/07 11:43:56;;;;;;;0.90;0.77;;;;;;;;;;4955709;28;20663;-40
2022/06/07 11:46:25;;;;;;;1.13;0.57;;;;;;;;;;4956694;28;20244;-37
2022/06/07 11:48:52;;;;;;;1.37;0.70;;;;;;;;;;4957806;28;20212;-39
2022/06/07 11:51:21;;;;;;;1.23;0.80;;;;;;;;;;4974769;28;20561;-38
2022/06/07 11:53:53;;;;;;;0.88;0.80;;;;;;;;;;4955136;29;20209;-38
2022/06/07 11:56:26;;;;;;;1.02;0.70;;;;;;;;;;4965107;28;20220;-41
2022/06/07 11:58:54;;;;;;;1.67;0.70;;;;;;;;;;4956004;28;20193;-37
2022/06/07 12:01:32;;;;;;;0.85;0.80;;;;;;;;;;4959120;28;20230;-37
2022/06/07 12:04:23;;;;;;;4.00;0.83;;;;;;;;;;4971782;28;20218;-44
2022/06/07 12:14:38;;;;;;;1.40;0.70;;;;;;;;;;4991908;28;20227;-26
2022/06/07 12:17:19;;;;;;;0.80;0.80;;;;;;;;;;4986680;28;20227;-31
2022/06/07 12:19:47;;;;;;;0.80;0.70;;;;;;;;;;4988914;28;20219;-30
2022/06/07 12:22:16;;;;;;;0.70;0.70;;;;;;;;;;4995003;28;20290;-30
2022/06/07 12:24:44;;;;;;;0.77;0.70;;;;;;;;;;4987766;28;20307;-28
2022/06/07 12:27:14;;;;;;;0.70;0.70;;;;;;;;;;4987609;28;20220;-29
2022/06/07 12:29:45;;;;;;;1.07;0.93;;;;;;;;;;4974597;28;20208;-25
2022/06/07 12:32:17;;;;;;;0.70;0.70;;;;;;;;;;4983800;28;20202;-28
2022/06/07 12:34:44;;;;;;;1.10;0.90;;;;;;;;;;4985733;28;20208;-27
2022/06/07 12:37:21;;;;;;;0.70;0.67;;;;;;;;;;4987942;28;20224;-26
2022/06/07 12:39:52;;;;;;;1.13;0.83;;;;;;;;;;4992508;28;20214;-28
2022/06/07 12:42:22;;;;;;;1.43;1.00;;;;;;;;;;4990665;28;20270;-28
2022/06/07 12:44:56;;;;;;;0.70;0.70;;;;;;;;;;4976759;28;20231;-27
2022/06/07 12:47:24;;;;;;;5.23;0.87;;;;;;;;;;4977010;28;20220;-30
2022/06/07 12:49:54;;;;;;;0.80;0.73;;;;;;;;;;4981726;28;20240;-31
2022/06/07 12:52:26;;;;;;;0.80;0.80;;;;;;;;;;4971355;28;20211;-27
2022/06/07 12:54:55;;;;;;;0.80;0.80;;;;;;;;;;4981126;28;20210;-28
2022/06/07 12:57:24;;;;;;;0.70;0.70;;;;;;;;;;4984693;28;20238;-25
2022/06/07 13:00:00;;;;;;;0.70;0.70;;;;;;;;;;4983628;28;20238;-28
2022/06/07 13:02:28;;;;;;;0.83;0.83;;;;;;;;;;4981977;28;20218;-27
2022/06/07 13:04:57;;;;;;;0.93;0.60;;;;;;;;;;4985551;28;20237;-29
2022/06/07 13:07:27;;;;;;;1.03;0.70;;;;;;;;;;4985950;28;20251;-26
2022/06/07 13:09:58;;;;;;;0.97;0.97;;;;;;;;;;4977022;28;20288;-26
2022/06/07 13:12:27;;;;;;;0.97;0.70;;;;;;;;;;4980376;28;20228;-27
2022/06/07 13:14:56;;;;;;;0.67;0.63;;;;;;;;;;4980822;28;20200;-27
2022/06/07 13:17:29;;;;;;;0.90;0.63;;;;;;;;;;4977484;28;20307;-26
2022/06/07 13:19:57;;;;;;;1.33;0.80;;;;;;;;;;4988308;28;20200;-28
2022/06/07 13:22:25;;;;;;;2.77;0.80;;;;;;;;;;4984783;28;20298;-30
2022/06/07 13:24:54;;;;;;;0.63;0.63;;;;;;;;;;4970837;28;20232;-29
2022/06/07 13:27:43;;;;;;;0.70;0.70;;;;;;;;;;4982276;28;20263;-28
2022/06/07 13:30:19;;;;;;;1.03;0.70;;;;;;;;;;4973620;28;20214;-27
2022/06/07 13:32:46;;;;;;;0.90;0.90;;;;;;;;;;4975728;28;20258;-27
2022/06/07 13:35:24;;;;;;;1.27;0.80;;;;;;;;;;4974518;28;20199;-28
2022/06/07 13:37:59;;;;;;;1.10;0.80;;;;;;;;;;4976638;28;20219;-26
2022/06/07 13:40:29;;;;;;;1.50;0.77;;;;;;;;;;4981669;28;20226;-26
2022/06/07 13:43:16;;;;;;;1.97;0.87;;;;;;;;;;4979414;28;20212;-29
2022/06/07 13:45:46;;;;;;;0.95;0.75;;;;;;;;;;4982109;28;20224;-24
2022/06/07 13:48:22;;;;;;;0.80;0.80;;;;;;;;;;4974326;28;20238;-31
2022/06/07 13:53:47;;;;;;;0.70;0.70;;;;;;;;;;4990152;28;20202;-27
2022/06/07 13:56:17;;;;;;;1.17;0.77;;;;;;;;;;4992938;28;20277;-31
2022/06/07 13:58:48;;;;;;;0.43;0.43;;;;;;;;;;4989696;28;20282;-29
2022/06/07 14:01:19;;;;;;;0.60;0.60;;;;;;;;;;4974342;28;20200;-28
2022/06/07 14:03:48;;;;;;;0.80;0.80;;;;;;;;;;4989390;28;20212;-27
2022/06/07 14:06:24;;;;;;;0.80;0.80;;;;;;;;;;4984209;28;20220;-28
2022/06/07 14:08:52;;;;;;;0.60;0.60;;;;;;;;;;4990789;28;20211;-29
2022/06/07 14:11:19;;;;;;;0.82;0.73;;;;;;;;;;4988163;28;20278;-28
2022/06/07 14:13:47;;;;;;;0.70;0.70;;;;;;;;;;4991614;28;20219;-27
2022/06/07 14:16:20;;;;;;;0.93;0.80;;;;;;;;;;4988184;28;20227;-27
2022/06/07 14:18:47;;;;;;;0.60;0.60;;;;;;;;;;4979716;28;20214;-27
2022/06/07 14:21:15;;;;;;;1.00;0.90;;;;;;;;;;4991911;28;20214;-31
2022/06/07 14:23:42;;;;;;;2.05;0.68;;;;;;;;;;4991837;28;20267;-29
2022/06/07 14:26:09;;;;;;;0.73;0.73;;;;;;;;;;4984856;28;20235;-30
2022/06/07 14:28:36;;;;;;;2.88;1.08;;;;;;;;;;4987382;28;20219;-27
2022/06/07 14:31:04;;;;;;;0.95;0.80;;;;;;;;;;4984870;28;20214;-27
2022/06/07 14:33:33;;;;;;;0.60;0.60;;;;;;;;;;4980780;28;20228;-25
2022/06/07 14:36:00;;;;;;;0.70;0.70;;;;;;;;;;4985592;28;20222;-30
2022/06/07 14:38:28;;;;;;;0.80;0.80;;;;;;;;;;4990444;28;20235;-26
2022/06/07 14:40:55;;;;;;;1.38;0.80;;;;;;;;;;4984401;28;20204;-29
2022/06/07 14:43:23;;;;;;;1.20;0.50;;;;;;;;;;4982626;28;20230;-27
2022/06/07 14:45:56;;;;;;;0.73;0.60;;;;;;;;;;4990166;28;20244;-30
2022/06/07 14:48:29;;;;;;;1.48;0.70;;;;;;;;;;4984943;28;20204;-27
2022/06/07 14:50:58;;;;;;;0.90;0.70;;;;;;;;;;4984004;28;20211;-29
2022/06/07 14:53:25;;;;;;;0.85;0.85;;;;;;;;;;4999781;28;20208;-29
2022/06/07 14:55:52;;;;;;;0.80;0.80;;;;;;;;;;4986473;28;20234;-28
2022/06/07 14:58:20;;;;;;;0.68;0.68;;;;;;;;;;4988993;28;20286;-26
2022/06/07 15:00:49;;;;;;;2.53;0.80;;;;;;;;;;4989062;28;20243;-30
2022/06/07 15:03:17;;;;;;;0.70;0.70;;;;;;;;;;4978686;28;20213;-27
2022/06/07 15:05:46;;;;;;;0.80;0.80;;;;;;;;;;4987157;28;20235;-26
2022/06/07 15:08:15;;;;;;;0.70;0.70;;;;;;;;;;4988204;28;20278;-27
2022/06/07 15:10:43;;;;;;;3.55;0.93;;;;;;;;;;4993099;28;20215;-27
2022/06/07 15:13:16;;;;;;;0.77;0.75;;;;;;;;;;4990083;28;20247;-27
2022/06/07 15:15:44;;;;;;;0.82;0.70;;;;;;;;;;4995060;28;20261;-24
2022/06/07 15:18:15;;;;;;;2.53;0.80;;;;;;;;;;4980110;28;20299;-25
2022/06/07 15:20:43;;;;;;;5.68;1.00;;;;;;;;;;4995681;28;20204;-30
2022/06/07 15:23:14;;;;;;;2.15;0.93;;;;;;;;;;4996843;28;20211;-27
2022/06/07 15:25:43;;;;;;;1.20;0.82;;;;;;;;;;4995846;28;20230;-29
2022/06/07 15:28:16;;;;;;;0.98;0.70;;;;;;;;;;4991347;28;20204;-27
2022/06/07 15:30:44;;;;;;;1.05;0.85;;;;;;;;;;4985985;28;20206;-29
2022/06/07 15:33:11;;;;;;;1.40;0.73;;;;;;;;;;4982737;28;20208;-28
2022/06/07 15:35:40;;;;;;;1.17;0.80;;;;;;;;;;4991013;28;20216;-26
2022/06/07 15:38:09;;;;;;;0.90;0.90;;;;;;;;;;4976617;28;20216;-28
2022/06/07 15:40:37;;;;;;;0.95;0.80;;;;;;;;;;4991143;28;20218;-26